Time;durP1;ratioP1;P1;durP2;ratioP2;P2;SDS_P1;SDS_P2;PMS_P1;PMS_P2;Temp;Humidity;BMP_temperature;BMP_pressure;BME280_temperature;BME280_humidity;BME280_pressure;Samples;Min_cycle;Max_cycle;Signal;HPM_P1;HPM_P2
2022/04/25 00:01:02;;;;;;;;;;;;;;;-143.90;100.00;55083.41;2081362;28;19978;-66
2022/04/25 00:02:24;;;;;;;;;;;;;;;-143.90;100.00;55146.97;2081792;28;19932;-67
2022/04/25 00:03:45;;;;;;;;;;;;;;;-143.90;100.00;55131.06;2079600;28;19925;-67
2022/04/25 00:05:06;;;;;;;;;;;;;;;-143.90;100.00;55143.00;2078532;28;19921;-67
2022/04/25 00:06:27;;;;;;;;;;;;;;;-143.90;100.00;55148.94;2080262;28;20392;-66
2022/04/25 00:07:50;;;;;;;;;;;;;;;-143.90;100.00;55115.19;2080363;28;19975;-66
2022/04/25 00:09:11;;;;;;;;;;;;;;;-143.90;100.00;55141.00;2080574;28;19921;-66
2022/04/25 00:10:32;;;;;;;;;;;;;;;-143.90;100.00;55125.13;2081290;28;19921;-65
2022/04/25 00:11:53;;;;;;;;;;;;;;;-143.90;100.00;55127.09;2080258;28;20024;-66
2022/04/25 00:13:14;;;;;;;;;;;;;;;-143.90;100.00;55119.16;2079831;28;19929;-66
2022/04/25 00:14:35;;;;;;;;;;;;;;;-143.90;100.00;55135.03;2078716;28;20051;-67
2022/04/25 00:15:56;;;;;;;;;;;;;;;-143.90;100.00;55111.22;2081022;28;19921;-66
2022/04/25 00:17:17;;;;;;;;;;;;;;;-143.90;100.00;55131.06;2080396;28;19934;-67
2022/04/25 00:18:38;;;;;;;;;;;;;;;-143.90;100.00;55091.38;2080189;28;19921;-66
2022/04/25 00:19:59;;;;;;;;;;;;;;;-143.90;100.00;55135.03;2079955;28;19932;-66
2022/04/25 00:21:20;;;;;;;;;;;;;;;-143.90;100.00;55121.16;2080206;28;19968;-67
2022/04/25 00:22:40;;;;;;;;;;;;;;;-143.90;100.00;55065.56;2079706;28;19936;-65
2022/04/25 00:24:01;;;;;;;;;;;;;;;-143.90;100.00;55119.16;2080436;28;19952;-66
2022/04/25 00:25:22;;;;;;;;;;;;;;;-143.90;100.00;55135.03;2081369;28;19979;-66
2022/04/25 00:26:42;;;;;;;;;;;;;;;-143.90;100.00;55135.03;2080233;28;20008;-65
2022/04/25 00:28:03;;;;;;;;;;;;;;;-143.90;100.00;55133.06;2089677;28;19927;-66
2022/04/25 00:29:24;;;;;;;;;;;;;;;-143.90;100.00;55119.16;2095669;28;19928;-67
2022/04/25 00:30:47;;;;;;;;;;;;;;;-143.90;100.00;55103.28;2094244;28;20050;-66
2022/04/25 00:32:08;;;;;;;;;;;;;;;-143.90;100.00;55127.09;2097333;28;20490;-66
2022/04/25 00:33:29;;;;;;;;;;;;;;;-143.90;100.00;55143.00;2096230;28;20671;-66
2022/04/25 00:34:49;;;;;;;;;;;;;;;-143.90;100.00;55123.13;2097769;28;19926;-67
2022/04/25 00:36:10;;;;;;;;;;;;;;;-143.90;100.00;55117.19;2096097;28;19920;-66
2022/04/25 00:37:31;;;;;;;;;;;;;;;-143.90;100.00;55121.16;2097564;28;19920;-67
2022/04/25 00:38:52;;;;;;;;;;;;;;;-143.90;100.00;55141.00;2097480;28;19959;-67
2022/04/25 00:40:12;;;;;;;;;;;;;;;-143.90;100.00;55139.03;2097699;28;19927;-66
2022/04/25 00:41:33;;;;;;;;;;;;;;;-143.90;100.00;55115.19;2098108;28;19920;-66
2022/04/25 00:42:54;;;;;;;;;;;;;;;-143.90;100.00;55143.00;2097904;28;20517;-66
2022/04/25 00:44:15;;;;;;;;;;;;;;;-143.90;100.00;55119.16;2096670;28;19960;-65
2022/04/25 00:45:36;;;;;;;;;;;;;;;-143.90;100.00;55103.28;2095522;28;20511;-66
2022/04/25 00:46:57;;;;;;;;;;;;;;;-143.90;100.00;55119.16;2095778;28;20955;-65
2022/04/25 00:48:17;;;;;;;;;;;;;;;-143.90;100.00;55150.94;2097032;28;19967;-65
2022/04/25 00:49:38;;;;;;;;;;;;;;;-143.90;100.00;55152.91;2097356;28;19924;-66
2022/04/25 00:50:59;;;;;;;;;;;;;;;-143.90;100.00;55127.09;2097771;28;19927;-67
2022/04/25 00:52:20;;;;;;;;;;;;;;;-143.90;100.00;55115.19;2096584;28;19952;-66
2022/04/25 00:53:40;;;;;;;;;;;;;;;-143.90;100.00;55107.25;2097605;28;19920;-66
2022/04/25 00:55:01;;;;;;;;;;;;;;;-143.90;100.00;55125.13;2096746;28;19916;-67
2022/04/25 00:56:22;;;;;;;;;;;;;;;-143.90;100.00;55129.09;2095641;28;19920;-66
2022/04/25 00:57:43;;;;;;;;;;;;;;;-143.90;100.00;55113.22;2096793;28;19920;-66
2022/04/25 00:59:04;;;;;;;;;;;;;;;-143.90;100.00;55095.34;2095079;28;20032;-67
2022/04/25 01:00:24;;;;;;;;;;;;;;;-143.90;100.00;55131.06;2094514;28;19931;-66
2022/04/25 01:01:45;;;;;;;;;;;;;;;-143.90;100.00;55123.13;2096449;28;20011;-65
2022/04/25 01:03:06;;;;;;;;;;;;;;;-143.90;100.00;55123.13;2095129;28;19986;-67
2022/04/25 01:04:27;;;;;;;;;;;;;;;-143.90;100.00;55099.31;2096866;28;19919;-65
2022/04/25 01:05:47;;;;;;;;;;;;;;;-143.90;100.00;55164.84;2096300;28;19930;-67
2022/04/25 01:07:09;;;;;;;;;;;;;;;-143.90;100.00;55075.47;2087725;28;19935;-66
2022/04/25 01:08:34;;;;;;;;;;;;;;;-143.90;100.00;55143.00;2094153;28;20009;-63
2022/04/25 01:09:56;;;;;;;;;;;;;;;-143.90;100.00;55135.03;2096017;28;19927;-67
2022/04/25 01:11:17;;;;;;;;;;;;;;;-143.90;100.00;55144.97;2097219;28;19920;-66
2022/04/25 01:12:38;;;;;;;;;;;;;;;-143.90;100.00;55075.47;2096588;28;20030;-65
2022/04/25 01:14:09;;;;;;;;;;;;;;;-143.90;100.00;55107.25;2096800;28;19920;-66
2022/04/25 01:15:31;;;;;;;;;;;;;;;-143.90;100.00;55131.06;2096588;28;20402;-66
2022/04/25 01:16:51;;;;;;;;;;;;;;;-143.90;100.00;55131.06;2095915;28;19925;-66
2022/04/25 01:18:12;;;;;;;;;;;;;;;-143.90;100.00;55119.16;2095843;28;19924;-66
2022/04/25 01:19:33;;;;;;;;;;;;;;;-143.90;100.00;55095.34;2095862;28;19924;-66
2022/04/25 01:20:55;;;;;;;;;;;;;;;-143.90;100.00;55103.28;2096383;28;19924;-67
2022/04/25 01:22:16;;;;;;;;;;;;;;;-143.90;100.00;55154.91;2097879;28;19923;-65
2022/04/25 01:28:34;;;;;;;;;;;;;;;-143.90;100.00;55119.16;2094791;28;19956;-65
2022/04/25 01:29:55;;;;;;;;;;;;;;;-143.90;100.00;55146.97;2096358;28;20370;-67
2022/04/25 01:31:15;;;;;;;;;;;;;;;-143.90;100.00;55135.03;2096677;28;19927;-70
2022/04/25 01:32:37;;;;;;;;;;;;;;;-143.90;100.00;55143.00;2095330;28;19920;-67
2022/04/25 01:33:58;;;;;;;;;;;;;;;-143.90;100.00;55127.09;2097165;28;20317;-65
2022/04/25 01:35:19;;;;;;;;;;;;;;;-143.90;100.00;55123.13;2096989;28;20019;-67
2022/04/25 01:36:39;;;;;;;;;;;;;;;-143.90;100.00;55139.03;2097143;28;20068;-65
2022/04/25 01:38:00;;;;;;;;;;;;;;;-143.90;100.00;55103.28;2097083;28;19920;-67
2022/04/25 01:39:21;;;;;;;;;;;;;;;-143.90;100.00;55091.38;2090321;28;19954;-64
2022/04/25 01:40:42;;;;;;;;;;;;;;;-143.90;100.00;55139.03;2095897;28;19927;-66
2022/04/25 01:42:03;;;;;;;;;;;;;;;-143.90;100.00;55123.13;2096910;28;19966;-66
2022/04/25 01:43:24;;;;;;;;;;;;;;;-143.90;100.00;55172.78;2097707;28;19935;-65
2022/04/25 01:44:45;;;;;;;;;;;;;;;-143.90;100.00;55099.31;2094942;28;19920;-65
2022/04/25 01:46:06;;;;;;;;;;;;;;;-143.90;100.00;55107.25;2096383;28;20051;-66
2022/04/25 01:47:29;;;;;;;;;;;;;;;-143.90;100.00;55093.34;2094881;28;19926;-66
2022/04/25 01:48:50;;;;;;;;;;;;;;;-143.90;100.00;55150.94;2095725;28;20019;-67
2022/04/25 01:50:11;;;;;;;;;;;;;;;-143.90;100.00;55111.22;2097353;28;20511;-66
2022/04/25 01:51:32;;;;;;;;;;;;;;;-143.90;100.00;55127.09;2097805;28;20509;-65
2022/04/25 01:52:52;;;;;;;;;;;;;;;-143.90;100.00;55135.03;2095971;28;19920;-67
2022/04/25 01:54:13;;;;;;;;;;;;;;;-143.90;100.00;55131.06;2093937;28;19927;-65
2022/04/25 01:55:35;;;;;;;;;;;;;;;-143.90;100.00;55119.16;2088339;28;20558;-66
2022/04/25 01:56:56;;;;;;;;;;;;;;;-143.90;100.00;55139.03;2094274;28;19924;-66
2022/04/25 01:58:17;;;;;;;;;;;;;;;-143.90;100.00;55121.16;2096928;28;19958;-66
2022/04/25 01:59:39;;;;;;;;;;;;;;;-143.90;100.00;55115.19;2094010;28;20323;-67
2022/04/25 02:01:00;;;;;;;;;;;;;;;-143.90;100.00;55127.09;2097087;28;19920;-67
2022/04/25 02:02:24;;;;;;;;;;;;;;;-143.90;100.00;55141.00;2095587;28;20350;-66
2022/04/25 02:03:46;;;;;;;;;;;;;;;-143.90;100.00;55129.09;2095745;28;20257;-67
2022/04/25 02:05:07;;;;;;;;;;;;;;;-143.90;100.00;55139.03;2096788;28;20015;-67
2022/04/25 02:06:29;;;;;;;;;;;;;;;-143.90;100.00;55111.22;2096902;28;21362;-67
2022/04/25 02:07:49;;;;;;;;;;;;;;;-143.90;100.00;55119.16;2096190;28;19924;-67
2022/04/25 02:09:10;;;;;;;;;;;;;;;-143.90;100.00;55107.25;2096156;28;19942;-66
2022/04/25 02:10:31;;;;;;;;;;;;;;;-143.90;100.00;55107.25;2097538;28;19924;-66
2022/04/25 02:11:52;;;;;;;;;;;;;;;-143.90;100.00;55133.06;2095286;28;20094;-66
2022/04/25 02:13:13;;;;;;;;;;;;;;;-143.90;100.00;55111.22;2096206;28;20386;-66
2022/04/25 02:14:34;;;;;;;;;;;;;;;-143.90;100.00;55127.09;2094433;28;20812;-66
2022/04/25 02:15:56;;;;;;;;;;;;;;;-143.90;100.00;55139.03;2094111;28;20009;-66
2022/04/25 02:17:17;;;;;;;;;;;;;;;-143.90;100.00;55109.22;2095432;28;19920;-67
2022/04/25 02:18:40;;;;;;;;;;;;;;;-143.90;100.00;55117.19;2095542;28;19959;-65
2022/04/25 02:20:01;;;;;;;;;;;;;;;-143.90;100.00;55083.41;2097156;28;20780;-67
2022/04/25 02:21:22;;;;;;;;;;;;;;;-143.90;100.00;55115.19;2095907;28;19920;-66
2022/04/25 02:22:43;;;;;;;;;;;;;;;-143.90;100.00;55115.19;2093981;28;19924;-67
2022/04/25 02:24:04;;;;;;;;;;;;;;;-143.90;100.00;55103.28;2094151;28;19924;-65
2022/04/25 02:25:25;;;;;;;;;;;;;;;-143.90;100.00;55123.13;2096712;28;20034;-66
2022/04/25 02:26:45;;;;;;;;;;;;;;;-143.90;100.00;55111.22;2096722;28;19967;-67
2022/04/25 02:28:06;;;;;;;;;;;;;;;-143.90;100.00;55127.09;2097348;28;19928;-67
2022/04/25 02:29:26;;;;;;;;;;;;;;;-143.90;100.00;55148.94;2096089;28;19924;-66
2022/04/25 02:30:47;;;;;;;;;;;;;;;-143.90;100.00;55162.84;2095408;28;19920;-66
2022/04/25 02:32:12;;;;;;;;;;;;;;;-143.90;100.00;55139.03;2094847;28;19927;-66
2022/04/25 02:33:33;;;;;;;;;;;;;;;-143.90;100.00;55127.09;2097762;28;20380;-66
2022/04/25 02:34:54;;;;;;;;;;;;;;;-143.90;100.00;55103.28;2095114;28;19924;-67
2022/04/25 02:36:14;;;;;;;;;;;;;;;-143.90;100.00;55168.81;2097090;28;19966;-66
2022/04/25 02:37:35;;;;;;;;;;;;;;;-143.90;100.00;55113.22;2096913;28;19920;-66
2022/04/25 02:38:56;;;;;;;;;;;;;;;-143.90;100.00;55121.16;2095041;28;19919;-66
2022/04/25 02:40:16;;;;;;;;;;;;;;;-143.90;100.00;55137.03;2096831;28;19974;-64
2022/04/25 02:41:37;;;;;;;;;;;;;;;-143.90;100.00;55127.09;2095742;28;19931;-66
2022/04/25 02:42:57;;;;;;;;;;;;;;;-143.90;100.00;55095.34;2096202;28;19931;-66
2022/04/25 02:44:18;;;;;;;;;;;;;;;-143.90;100.00;55103.28;2096002;28;19920;-66
2022/04/25 02:45:39;;;;;;;;;;;;;;;-143.90;100.00;55115.19;2096524;28;20288;-66
2022/04/25 02:47:00;;;;;;;;;;;;;;;-143.90;100.00;55087.41;2097420;28;19927;-66
2022/04/25 02:48:21;;;;;;;;;;;;;;;-143.90;100.00;55111.22;2097351;28;20006;-66
2022/04/25 02:49:41;;;;;;;;;;;;;;;-143.90;100.00;55107.25;2097839;28;19960;-66
2022/04/25 02:51:02;;;;;;;;;;;;;;;-143.90;100.00;55107.25;2096730;28;19920;-66
2022/04/25 02:52:23;;;;;;;;;;;;;;;-143.90;100.00;55097.31;2098741;28;19920;-66
2022/04/25 02:53:44;;;;;;;;;;;;;;;-143.90;100.00;55087.41;2096797;28;20415;-66
2022/04/25 02:55:04;;;;;;;;;;;;;;;-143.90;100.00;55099.31;2097511;28;20657;-67
2022/04/25 02:56:25;;;;;;;;;;;;;;;-143.90;100.00;55095.34;2097358;28;19989;-66
2022/04/25 02:57:46;;;;;;;;;;;;;;;-143.90;100.00;55111.22;2097978;28;19923;-65
2022/04/25 02:59:07;;;;;;;;;;;;;;;-143.90;100.00;55127.09;2090212;28;20417;-65
2022/04/25 03:00:27;;;;;;;;;;;;;;;-143.90;100.00;55115.19;2093263;28;19920;-66
2022/04/25 03:01:48;;;;;;;;;;;;;;;-143.90;100.00;55131.06;2097338;28;20364;-66
2022/04/25 03:03:09;;;;;;;;;;;;;;;-143.90;100.00;55079.44;2096820;28;19943;-66
2022/04/25 03:04:30;;;;;;;;;;;;;;;-143.90;100.00;55097.31;2099181;28;19967;-66
2022/04/25 03:05:52;;;;;;;;;;;;;;;-143.90;100.00;55091.38;2096042;28;19920;-66
2022/04/25 03:07:13;;;;;;;;;;;;;;;-143.90;100.00;55131.06;2089965;28;21374;-66
2022/04/25 03:08:34;;;;;;;;;;;;;;;-143.90;100.00;55063.56;2093908;28;19956;-67
2022/04/25 03:09:55;;;;;;;;;;;;;;;-143.90;100.00;55093.34;2099600;28;20466;-67
2022/04/25 03:11:16;;;;;;;;;;;;;;;-143.90;100.00;55097.31;2097999;28;19920;-64
2022/04/25 03:12:38;;;;;;;;;;;;;;;-143.90;100.00;55091.38;2097477;28;19997;-66
2022/04/25 03:13:59;;;;;;;;;;;;;;;-143.90;100.00;55127.09;2096372;28;20363;-66
2022/04/25 03:15:20;;;;;;;;;;;;;;;-143.90;100.00;55146.97;2098054;28;20371;-66
2022/04/25 03:16:40;;;;;;;;;;;;;;;-143.90;100.00;55144.97;2095699;28;19926;-66
2022/04/25 03:18:01;;;;;;;;;;;;;;;-143.90;100.00;55121.16;2097793;28;19920;-66
2022/04/25 03:19:21;;;;;;;;;;;;;;;-143.90;100.00;55083.41;2097409;28;20318;-65
2022/04/25 03:20:43;;;;;;;;;;;;;;;-143.90;100.00;55107.25;2096453;28;19927;-66
2022/04/25 03:22:06;;;;;;;;;;;;;;;-143.90;100.00;55075.47;2097589;28;19967;-66
2022/04/25 03:23:27;;;;;;;;;;;;;;;-143.90;100.00;55121.16;2098103;28;20391;-66
2022/04/25 03:24:48;;;;;;;;;;;;;;;-143.90;100.00;55146.97;2097476;28;19942;-66
2022/04/25 03:26:08;;;;;;;;;;;;;;;-143.90;100.00;55087.41;2098355;28;19928;-66
2022/04/25 03:27:29;;;;;;;;;;;;;;;-143.90;100.00;55073.50;2097468;28;19985;-66
2022/04/25 03:28:49;;;;;;;;;;;;;;;-143.90;100.00;55139.03;2096320;28;19952;-66
2022/04/25 03:30:10;;;;;;;;;;;;;;;-143.90;100.00;55135.03;2096353;28;19924;-66
2022/04/25 03:31:31;;;;;;;;;;;;;;;-143.90;100.00;55119.16;2096020;28;20573;-67
2022/04/25 03:32:52;;;;;;;;;;;;;;;-143.90;100.00;55095.34;2097282;28;20021;-65
2022/04/25 03:34:13;;;;;;;;;;;;;;;-143.90;100.00;55141.00;2097099;28;19961;-66
2022/04/25 03:35:34;;;;;;;;;;;;;;;-143.90;100.00;55123.13;2087950;28;19921;-66
2022/04/25 03:36:56;;;;;;;;;;;;;;;-143.90;100.00;55139.03;2095075;28;19930;-65
2022/04/25 03:38:18;;;;;;;;;;;;;;;-143.90;100.00;55091.38;2098570;28;20510;-66
2022/04/25 03:39:38;;;;;;;;;;;;;;;-143.90;100.00;55107.25;2097134;28;20014;-65
2022/04/25 03:41:02;;;;;;;;;;;;;;;-143.90;100.00;55063.56;2095318;28;19924;-67
2022/04/25 03:42:24;;;;;;;;;;;;;;;-143.90;100.00;55115.19;2097517;28;19927;-66
2022/04/25 03:43:44;;;;;;;;;;;;;;;-143.90;100.00;55103.28;2097920;28;20782;-66
2022/04/25 03:45:05;;;;;;;;;;;;;;;-143.90;100.00;55099.31;2096291;28;19977;-66
2022/04/25 03:46:27;;;;;;;;;;;;;;;-143.90;100.00;55111.22;2099154;28;19924;-66
2022/04/25 03:47:48;;;;;;;;;;;;;;;-143.90;100.00;55131.06;2098017;28;20532;-66
2022/04/25 03:49:08;;;;;;;;;;;;;;;-143.90;100.00;55115.19;2098082;28;20318;-66
2022/04/25 03:50:31;;;;;;;;;;;;;;;-143.90;100.00;55125.13;2098050;28;20276;-66
2022/04/25 03:51:52;;;;;;;;;;;;;;;-143.90;100.00;55109.22;2096434;28;20448;-66
2022/04/25 03:53:13;;;;;;;;;;;;;;;-143.90;100.00;55129.09;2097490;28;20291;-66
2022/04/25 03:57:53;;;;;;;;;;;;;;;-143.90;100.00;55143.00;2095758;28;19920;-66
2022/04/25 03:59:14;;;;;;;;;;;;;;;-143.90;100.00;55111.22;2096675;28;19966;-66
2022/04/25 04:00:37;;;;;;;;;;;;;;;-143.90;100.00;55146.97;2096593;27;20682;-66
2022/04/25 04:01:58;;;;;;;;;;;;;;;-143.90;100.00;55123.13;2096404;28;19927;-66
2022/04/25 04:03:19;;;;;;;;;;;;;;;-143.90;100.00;55107.25;2096035;28;19920;-67
2022/04/25 04:04:39;;;;;;;;;;;;;;;-143.90;100.00;55150.94;2096606;28;19927;-67
2022/04/25 04:06:00;;;;;;;;;;;;;;;-143.90;100.00;55146.97;2096509;28;20041;-65
2022/04/25 04:07:21;;;;;;;;;;;;;;;-143.90;100.00;55107.25;2096254;28;19947;-66
2022/04/25 04:08:42;;;;;;;;;;;;;;;-143.90;100.00;55089.38;2096069;28;19945;-65
2022/04/25 04:10:02;;;;;;;;;;;;;;;-143.90;100.00;55144.97;2094894;28;19920;-65
2022/04/25 04:11:23;;;;;;;;;;;;;;;-143.90;100.00;55119.16;2096005;28;19927;-66
2022/04/25 04:12:46;;;;;;;;;;;;;;;-143.90;100.00;55073.50;2095638;28;19966;-65
2022/04/25 04:14:07;;;;;;;;;;;;;;;-143.90;100.00;55077.47;2096793;28;19920;-66
2022/04/25 04:15:27;;;;;;;;;;;;;;;-143.90;100.00;55095.34;2096586;28;19970;-67
2022/04/25 04:16:48;;;;;;;;;;;;;;;-143.90;100.00;55099.31;2097977;28;20007;-66
2022/04/25 04:18:09;;;;;;;;;;;;;;;-143.90;100.00;55093.34;2097367;28;20006;-65
2022/04/25 04:19:30;;;;;;;;;;;;;;;-143.90;100.00;55115.19;2095170;28;19928;-66
2022/04/25 04:20:51;;;;;;;;;;;;;;;-143.90;100.00;55121.16;2095859;28;20471;-64
2022/04/25 04:22:11;;;;;;;;;;;;;;;-143.90;100.00;55150.94;2095944;28;19974;-65
2022/04/25 04:23:32;;;;;;;;;;;;;;;-143.90;100.00;55111.22;2096278;28;19924;-66
2022/04/25 04:24:56;;;;;;;;;;;;;;;-143.90;100.00;55111.22;2096061;28;19925;-65
2022/04/25 04:26:16;;;;;;;;;;;;;;;-143.90;100.00;55109.22;2093643;28;19920;-66
2022/04/25 04:27:38;;;;;;;;;;;;;;;-143.90;100.00;55095.34;2096549;28;20328;-65
2022/04/25 04:28:58;;;;;;;;;;;;;;;-143.90;100.00;55111.22;2095167;28;20371;-66
2022/04/25 04:30:19;;;;;;;;;;;;;;;-143.90;100.00;55139.03;2095589;28;19974;-67
2022/04/25 04:31:40;;;;;;;;;;;;;;;-143.90;100.00;55099.31;2098010;28;19927;-64
2022/04/25 04:33:00;;;;;;;;;;;;;;;-143.90;100.00;55107.25;2097276;28;19927;-65
2022/04/25 04:34:21;;;;;;;;;;;;;;;-143.90;100.00;55115.19;2097314;28;19974;-65
2022/04/25 04:37:21;;;;;;;;;;;;;;;-143.90;100.00;55123.13;2097069;28;20028;-67
2022/04/25 04:38:42;;;;;;;;;;;;;;;-143.90;100.00;55144.97;2096185;28;20372;-66
2022/04/25 04:41:42;;;;;;;;;;;;;;;-143.90;100.00;55099.31;2096219;28;20719;-66
2022/04/25 04:43:03;;;;;;;;;;;;;;;-143.90;100.00;55150.94;2096878;28;19924;-66
2022/04/25 04:44:23;;;;;;;;;;;;;;;-143.90;100.00;55131.06;2097608;28;19921;-66
2022/04/25 04:45:44;;;;;;;;;;;;;;;-143.90;100.00;55125.13;2096770;28;19930;-66
2022/04/25 04:47:05;;;;;;;;;;;;;;;-143.90;100.00;55111.22;2095574;28;20378;-63
2022/04/25 04:48:26;;;;;;;;;;;;;;;-143.90;100.00;55103.28;2095318;28;20427;-64
2022/04/25 04:49:47;;;;;;;;;;;;;;;-143.90;100.00;55125.13;2096407;28;20427;-67
2022/04/25 04:51:08;;;;;;;;;;;;;;;-143.90;100.00;55129.09;2096695;28;20007;-66
2022/04/25 04:52:29;;;;;;;;;;;;;;;-143.90;100.00;55093.34;2096501;28;20007;-67
2022/04/25 04:53:49;;;;;;;;;;;;;;;-143.90;100.00;55119.16;2095957;28;19920;-66
2022/04/25 04:55:10;;;;;;;;;;;;;;;-143.90;100.00;55111.22;2094237;28;20387;-66
2022/04/25 04:56:31;;;;;;;;;;;;;;;-143.90;100.00;55095.34;2095366;28;20018;-65
2022/04/25 04:57:53;;;;;;;;;;;;;;;-143.90;100.00;55099.31;2096867;28;19924;-66
2022/04/25 04:59:13;;;;;;;;;;;;;;;-143.90;100.00;55170.78;2094481;28;19924;-66
2022/04/25 05:00:34;;;;;;;;;;;;;;;-143.90;100.00;55123.13;2096530;28;19964;-66
2022/04/25 05:01:55;;;;;;;;;;;;;;;-143.90;100.00;55135.03;2096572;28;19990;-66
2022/04/25 05:03:15;;;;;;;;;;;;;;;-143.90;100.00;55075.47;2096773;28;20483;-66
2022/04/25 05:04:38;;;;;;;;;;;;;;;-143.90;100.00;55083.41;2096032;28;20038;-66
2022/04/25 05:05:58;;;;;;;;;;;;;;;-143.90;100.00;55107.25;2097396;28;19962;-66
2022/04/25 05:07:19;;;;;;;;;;;;;;;-143.90;100.00;55107.25;2095904;28;19923;-66
2022/04/25 05:08:40;;;;;;;;;;;;;;;-143.90;100.00;55087.41;2095992;28;19931;-66
2022/04/25 05:10:03;;;;;;;;;;;;;;;-143.90;100.00;55099.31;2095511;28;19924;-66
2022/04/25 05:11:24;;;;;;;;;;;;;;;-143.90;100.00;55115.19;2086695;28;19920;-66
2022/04/25 05:12:46;;;;;;;;;;;;;;;-143.90;100.00;55115.19;2094289;28;19928;-65
2022/04/25 05:14:09;;;;;;;;;;;;;;;-143.90;100.00;55109.22;2095604;28;20019;-66
2022/04/25 05:15:30;;;;;;;;;;;;;;;-143.90;100.00;55139.03;2095943;28;19921;-66
2022/04/25 05:16:50;;;;;;;;;;;;;;;-143.90;100.00;55127.09;2095677;28;20291;-66
2022/04/25 05:18:11;;;;;;;;;;;;;;;-143.90;100.00;55115.19;2095653;28;19919;-64
2022/04/25 05:19:31;;;;;;;;;;;;;;;-143.90;100.00;55139.03;2088055;28;19921;-66
2022/04/25 05:20:52;;;;;;;;;;;;;;;-143.90;100.00;55127.09;2087882;28;19931;-66
2022/04/25 05:22:12;;;;;;;;;;;;;;;-143.90;100.00;55107.25;2092048;28;19930;-65
2022/04/25 05:23:33;;;;;;;;;;;;;;;-143.90;100.00;55135.03;2094860;28;19920;-64
2022/04/25 05:24:54;;;;;;;;;;;;;;;-143.90;100.00;55091.38;2096806;28;19920;-66
2022/04/25 05:26:15;;;;;;;;;;;;;;;-143.90;100.00;55131.06;2080508;28;20004;-66
2022/04/25 05:27:38;;;;;;;;;;;;;;;-143.90;100.00;55127.09;2089929;28;19920;-66
2022/04/25 05:28:58;;;;;;;;;;;;;;;-143.90;100.00;55111.22;2095546;28;19920;-66
2022/04/25 05:30:20;;;;;;;;;;;;;;;-143.90;100.00;55121.16;2095701;28;20007;-66
2022/04/25 05:31:40;;;;;;;;;;;;;;;-143.90;100.00;55123.13;2094840;28;19984;-66
2022/04/25 05:33:05;;;;;;;;;;;;;;;-143.90;100.00;55095.34;2096584;28;19924;-65
2022/04/25 05:34:26;;;;;;;;;;;;;;;-143.90;100.00;55164.84;2095924;28;19955;-66
2022/04/25 05:35:46;;;;;;;;;;;;;;;-143.90;100.00;55119.16;2096077;28;19920;-65
2022/04/25 05:37:07;;;;;;;;;;;;;;;-143.90;100.00;55115.19;2095849;28;19945;-67
2022/04/25 05:38:28;;;;;;;;;;;;;;;-143.90;100.00;55119.16;2087716;28;19921;-66
2022/04/25 05:39:48;;;;;;;;;;;;;;;-143.90;100.00;55144.97;2092726;28;19923;-67
2022/04/25 05:41:10;;;;;;;;;;;;;;;-143.90;100.00;55111.22;2095603;28;19920;-66
2022/04/25 05:42:30;;;;;;;;;;;;;;;-143.90;100.00;55089.38;2095628;28;19916;-65
2022/04/25 05:43:51;;;;;;;;;;;;;;;-143.90;100.00;55099.31;2095117;28;19955;-67
2022/04/25 05:45:12;;;;;;;;;;;;;;;-143.90;100.00;55107.25;2095111;28;19916;-65
2022/04/25 05:46:33;;;;;;;;;;;;;;;-143.90;100.00;55101.28;2094977;28;19960;-66
2022/04/25 05:47:54;;;;;;;;;;;;;;;-143.90;100.00;55127.09;2096721;28;19928;-66
2022/04/25 05:52:47;;;;;;;;;;;;;;;-143.90;100.00;55119.16;2066713;28;19960;-65
2022/04/25 05:54:07;;;;;;;;;;;;;;;-143.90;100.00;55111.22;2096608;28;19917;-65
2022/04/25 05:55:31;;;;;;;;;;;;;;;-143.90;100.00;55119.16;2095283;28;19967;-67
2022/04/25 05:56:52;;;;;;;;;;;;;;;-143.90;100.00;55095.34;2094403;28;19920;-65
2022/04/25 05:58:13;;;;;;;;;;;;;;;-143.90;100.00;55091.38;2096791;28;19924;-65
2022/04/25 05:59:34;;;;;;;;;;;;;;;-143.90;100.00;55123.13;2094310;28;19997;-65
2022/04/25 06:00:54;;;;;;;;;;;;;;;-143.90;100.00;55095.34;2096791;28;19924;-67
2022/04/25 06:02:17;;;;;;;;;;;;;;;-143.90;100.00;55107.25;2096213;28;19927;-66
2022/04/25 06:03:38;;;;;;;;;;;;;;;-143.90;100.00;55154.91;2095271;28;19924;-66
2022/04/25 06:04:58;;;;;;;;;;;;;;;-143.90;100.00;55123.13;2095343;28;20383;-66
2022/04/25 06:06:21;;;;;;;;;;;;;;;-143.90;100.00;55123.13;2095118;28;20011;-66
2022/04/25 06:07:43;;;;;;;;;;;;;;;-143.90;100.00;55103.28;2096307;28;19927;-66
2022/04/25 06:09:04;;;;;;;;;;;;;;;-143.90;100.00;55091.38;2096343;28;19923;-64
2022/04/25 06:10:27;;;;;;;;;;;;;;;-143.90;100.00;55117.19;2096251;28;20350;-66
2022/04/25 06:11:49;;;;;;;;;;;;;;;-143.90;100.00;55093.34;2087692;28;19927;-66
2022/04/25 06:13:09;;;;;;;;;;;;;;;-143.90;100.00;55111.22;2093814;28;19923;-67
2022/04/25 06:14:31;;;;;;;;;;;;;;;-143.90;100.00;55067.53;2095226;28;19970;-66
2022/04/25 06:15:51;;;;;;;;;;;;;;;-143.90;100.00;55095.34;2094965;28;20455;-66
2022/04/25 06:17:15;;;;;;;;;;;;;;;-143.90;100.00;55123.13;2095428;28;19919;-66
2022/04/25 06:18:35;;;;;;;;;;;;;;;-143.90;100.00;55131.06;2095127;28;19931;-66
2022/04/25 06:19:56;;;;;;;;;;;;;;;-143.90;100.00;55083.41;2096469;28;20363;-66
2022/04/25 06:21:17;;;;;;;;;;;;;;;-143.90;100.00;55133.06;2097417;28;19920;-65
2022/04/25 06:22:38;;;;;;;;;;;;;;;-143.90;100.00;55095.34;2097055;28;19917;-67
2022/04/25 06:24:00;;;;;;;;;;;;;;;-143.90;100.00;55111.22;2095461;28;19925;-67
2022/04/25 06:25:21;;;;;;;;;;;;;;;-143.90;100.00;55119.16;2098291;28;19920;-66
2022/04/25 06:26:42;;;;;;;;;;;;;;;-143.90;100.00;55115.19;2097478;28;20050;-66
2022/04/25 06:28:03;;;;;;;;;;;;;;;-143.90;100.00;55111.22;2095308;28;19927;-66
2022/04/25 06:29:24;;;;;;;;;;;;;;;-143.90;100.00;55119.16;2094766;28;19924;-66
2022/04/25 06:30:45;;;;;;;;;;;;;;;-143.90;100.00;55123.13;2096961;28;20027;-66
2022/04/25 06:32:06;;;;;;;;;;;;;;;-143.90;100.00;55119.16;2096977;28;19920;-66
2022/04/25 06:33:26;;;;;;;;;;;;;;;-143.90;100.00;55091.38;2084949;28;19924;-66
2022/04/25 06:34:47;;;;;;;;;;;;;;;-143.90;100.00;55129.09;2079902;28;20491;-66
2022/04/25 06:36:08;;;;;;;;;;;;;;;-143.90;100.00;55119.16;2092511;28;19989;-66
2022/04/25 06:37:28;;;;;;;;;;;;;;;-143.90;100.00;55107.25;2097844;28;19912;-66
2022/04/25 06:38:49;;;;;;;;;;;;;;;-143.90;100.00;55099.31;2098241;28;20026;-66
2022/04/25 06:40:10;;;;;;;;;;;;;;;-143.90;100.00;55103.28;2088371;28;19928;-67
2022/04/25 06:41:32;;;;;;;;;;;;;;;-143.90;100.00;55119.16;2093808;28;19952;-65
2022/04/25 06:42:53;;;;;;;;;;;;;;;-143.90;100.00;55135.03;2098779;28;19955;-66
2022/04/25 06:44:14;;;;;;;;;;;;;;;-143.90;100.00;55127.09;2097704;28;19920;-66
2022/04/25 06:45:35;;;;;;;;;;;;;;;-143.90;100.00;55115.19;2096621;28;19931;-67
2022/04/25 06:46:55;;;;;;;;;;;;;;;-143.90;100.00;55115.19;2097827;28;20018;-66
2022/04/25 06:48:16;;;;;;;;;;;;;;;-143.90;100.00;55087.41;2096430;28;20019;-67
2022/04/25 06:49:37;;;;;;;;;;;;;;;-143.90;100.00;55085.41;2098139;28;19916;-67
2022/04/25 06:50:58;;;;;;;;;;;;;;;-143.90;100.00;55095.34;2096904;28;19920;-67
2022/04/25 06:52:20;;;;;;;;;;;;;;;-143.90;100.00;55079.44;2098065;28;20406;-67
2022/04/25 06:53:41;;;;;;;;;;;;;;;-143.90;100.00;55117.19;2097131;28;20292;-65
2022/04/25 06:55:04;;;;;;;;;;;;;;;-143.90;100.00;55103.28;2097481;28;20010;-65
2022/04/25 06:56:25;;;;;;;;;;;;;;;-143.90;100.00;55119.16;2096762;28;19928;-67
2022/04/25 06:57:47;;;;;;;;;;;;;;;-143.90;100.00;55131.06;2096976;28;19916;-64
2022/04/25 06:59:08;;;;;;;;;;;;;;;-143.90;100.00;55119.16;2096929;28;19951;-67
2022/04/25 07:00:29;;;;;;;;;;;;;;;-143.90;100.00;55093.34;2098209;28;19920;-67
2022/04/25 07:01:50;;;;;;;;;;;;;;;-143.90;100.00;55123.13;2096255;28;19920;-67